Time;durP1;ratioP1;P1;durP2;ratioP2;P2;SDS_P1;SDS_P2;PMS_P1;PMS_P2;Temp;Humidity;BMP_temperature;BMP_pressure;BME280_temperature;BME280_humidity;BME280_pressure;Samples;Min_cycle;Max_cycle;Signal;HPM_P1;HPM_P2
2023/04/22 00:01:34;;;;;;;544.03;227.35;;;;;;;;;;4981984;28;20053;-58
2023/04/22 00:04:00;;;;;;;611.83;235.45;;;;;;;;;;4983600;28;20045;-57
2023/04/22 00:06:26;;;;;;;564.90;235.77;;;;;;;;;;4984514;28;20030;-59
2023/04/22 00:08:51;;;;;;;520.67;220.57;;;;;;;;;;4984860;28;20052;-58
2023/04/22 00:11:17;;;;;;;534.73;212.90;;;;;;;;;;4983770;28;20058;-59
2023/04/22 00:13:42;;;;;;;646.20;233.80;;;;;;;;;;4983683;28;20333;-56
2023/04/22 00:16:08;;;;;;;632.15;244.88;;;;;;;;;;4983325;28;20046;-59
2023/04/22 00:18:34;;;;;;;555.47;228.20;;;;;;;;;;4983572;28;20068;-58
2023/04/22 00:21:00;;;;;;;568.47;243.15;;;;;;;;;;4983173;28;20040;-57
2023/04/22 00:23:25;;;;;;;599.20;244.93;;;;;;;;;;4982870;28;20441;-57
2023/04/22 00:25:50;;;;;;;569.65;232.55;;;;;;;;;;4969952;28;20534;-57
2023/04/22 00:28:15;;;;;;;598.60;251.47;;;;;;;;;;4984353;28;20026;-56
2023/04/22 00:30:41;;;;;;;581.33;246.70;;;;;;;;;;4984718;28;20262;-56
2023/04/22 00:33:06;;;;;;;586.40;242.40;;;;;;;;;;4983936;28;20318;-58
2023/04/22 00:35:31;;;;;;;572.90;238.88;;;;;;;;;;4984280;28;20098;-58
2023/04/22 00:37:57;;;;;;;573.70;232.27;;;;;;;;;;4983360;28;20026;-57
2023/04/22 00:40:22;;;;;;;549.25;232.00;;;;;;;;;;4984648;28;20517;-56
2023/04/22 00:42:48;;;;;;;601.15;231.82;;;;;;;;;;4982613;28;20022;-58
2023/04/22 00:45:14;;;;;;;555.47;224.18;;;;;;;;;;4983073;28;20018;-55
2023/04/22 00:47:40;;;;;;;557.38;223.82;;;;;;;;;;4982874;28;20437;-58
2023/04/22 00:50:06;;;;;;;548.10;220.02;;;;;;;;;;4984813;28;20037;-57
2023/04/22 00:52:31;;;;;;;595.72;236.15;;;;;;;;;;4983757;28;20114;-59
2023/04/22 00:54:56;;;;;;;533.60;220.70;;;;;;;;;;4983559;28;20022;-59
2023/04/22 00:57:21;;;;;;;537.47;219.98;;;;;;;;;;4983306;28;20269;-58
2023/04/22 00:59:47;;;;;;;572.28;221.30;;;;;;;;;;4983217;28;20590;-60
2023/04/22 01:02:13;;;;;;;606.13;229.00;;;;;;;;;;4981655;28;20036;-57
2023/04/22 01:04:38;;;;;;;598.72;231.93;;;;;;;;;;4982895;28;20033;-56
2023/04/22 01:07:03;;;;;;;542.78;215.40;;;;;;;;;;4982158;28;20114;-56
2023/04/22 01:09:29;;;;;;;553.75;222.35;;;;;;;;;;4982169;28;20030;-57
2023/04/22 01:11:55;;;;;;;567.03;242.43;;;;;;;;;;4982624;28;20033;-57
2023/04/22 01:14:20;;;;;;;555.28;229.45;;;;;;;;;;4980777;28;20079;-57
2023/04/22 01:16:45;;;;;;;568.75;231.48;;;;;;;;;;4981815;28;20056;-57
2023/04/22 01:19:10;;;;;;;591.95;240.73;;;;;;;;;;4983086;28;20049;-57
2023/04/22 01:21:37;;;;;;;589.13;246.23;;;;;;;;;;4983407;28;20139;-58
2023/04/22 01:24:03;;;;;;;602.10;238.02;;;;;;;;;;4983134;28;20022;-58
2023/04/22 01:26:28;;;;;;;561.03;231.63;;;;;;;;;;4981692;28;20408;-59
2023/04/22 01:28:53;;;;;;;588.80;226.75;;;;;;;;;;4983154;28;20025;-58
2023/04/22 01:31:19;;;;;;;558.65;238.15;;;;;;;;;;4981668;28;20035;-58
2023/04/22 01:33:44;;;;;;;666.20;241.40;;;;;;;;;;4984106;28;20068;-56
2023/04/22 01:36:10;;;;;;;573.63;220.50;;;;;;;;;;4982628;28;20361;-58
2023/04/22 01:38:35;;;;;;;571.95;233.25;;;;;;;;;;4984717;28;20021;-58
2023/04/22 01:41:01;;;;;;;596.08;239.80;;;;;;;;;;4982857;28;20148;-58
2023/04/22 01:43:26;;;;;;;547.47;238.48;;;;;;;;;;4982890;28;20487;-58
2023/04/22 01:45:52;;;;;;;562.60;231.85;;;;;;;;;;4980912;28;20375;-57
2023/04/22 01:48:17;;;;;;;546.15;221.75;;;;;;;;;;4982341;28;20046;-58
2023/04/22 01:50:43;;;;;;;554.00;225.00;;;;;;;;;;4981563;28;20090;-58
2023/04/22 01:53:08;;;;;;;547.90;226.32;;;;;;;;;;4983875;28;20269;-57
2023/04/22 01:55:34;;;;;;;544.70;219.95;;;;;;;;;;4981851;28;20431;-58
2023/04/22 01:58:00;;;;;;;536.38;215.52;;;;;;;;;;4983058;28;20026;-57
2023/04/22 02:00:25;;;;;;;542.55;207.00;;;;;;;;;;4981643;28;20536;-59
2023/04/22 02:02:50;;;;;;;517.10;208.83;;;;;;;;;;4984354;28;20058;-57
2023/04/22 02:05:16;;;;;;;546.80;216.70;;;;;;;;;;4981387;28;20388;-58
2023/04/22 02:07:41;;;;;;;595.30;222.18;;;;;;;;;;4983339;28;20025;-59
2023/04/22 02:10:08;;;;;;;551.60;221.95;;;;;;;;;;4982628;28;20018;-57
2023/04/22 02:12:33;;;;;;;556.97;225.93;;;;;;;;;;4983655;28;20080;-57
2023/04/22 02:14:58;;;;;;;563.97;225.43;;;;;;;;;;4983132;28;20034;-57
2023/04/22 02:17:24;;;;;;;555.17;233.38;;;;;;;;;;4983091;28;20030;-61
2023/04/22 02:19:49;;;;;;;535.92;223.13;;;;;;;;;;4981280;28;20024;-59
2023/04/22 02:22:14;;;;;;;571.70;229.90;;;;;;;;;;4984723;28;20209;-61
2023/04/22 02:24:40;;;;;;;546.90;220.25;;;;;;;;;;4985555;28;20583;-59
2023/04/22 02:27:07;;;;;;;567.80;217.70;;;;;;;;;;4984954;28;20026;-59
2023/04/22 02:29:33;;;;;;;580.78;228.95;;;;;;;;;;4985637;28;20101;-60
2023/04/22 02:31:58;;;;;;;578.55;237.55;;;;;;;;;;4984662;28;20076;-57
2023/04/22 02:34:24;;;;;;;572.95;228.27;;;;;;;;;;4983610;28;20105;-59
2023/04/22 02:36:49;;;;;;;512.45;201.32;;;;;;;;;;4983698;28;20068;-57
2023/04/22 02:39:14;;;;;;;597.10;226.05;;;;;;;;;;4986821;28;20029;-59
2023/04/22 02:41:39;;;;;;;546.70;209.50;;;;;;;;;;4986113;28;20030;-59
2023/04/22 02:44:05;;;;;;;557.53;214.13;;;;;;;;;;4984420;28;20616;-60
2023/04/22 02:46:30;;;;;;;614.90;239.43;;;;;;;;;;4983053;28;20811;-60
2023/04/22 02:48:55;;;;;;;549.50;228.05;;;;;;;;;;4986977;28;20038;-59
2023/04/22 02:51:21;;;;;;;532.33;219.90;;;;;;;;;;4984423;28;20046;-56
2023/04/22 02:53:46;;;;;;;651.33;225.73;;;;;;;;;;4985497;28;20033;-59
2023/04/22 02:56:12;;;;;;;558.20;232.60;;;;;;;;;;4983986;28;20082;-60
2023/04/22 02:58:37;;;;;;;582.05;232.68;;;;;;;;;;4985142;28;20264;-58
2023/04/22 03:01:02;;;;;;;642.37;239.77;;;;;;;;;;5016910;28;20046;-56
2023/04/22 03:03:28;;;;;;;588.33;244.77;;;;;;;;;;4983355;28;20273;-56
2023/04/22 03:05:53;;;;;;;641.67;242.93;;;;;;;;;;4980871;28;20038;-57
2023/04/22 03:08:18;;;;;;;524.50;220.70;;;;;;;;;;4984640;28;20372;-56
2023/04/22 03:10:43;;;;;;;527.25;225.52;;;;;;;;;;4986000;28;20257;-58
2023/04/22 03:13:09;;;;;;;562.80;236.05;;;;;;;;;;4983401;28;20482;-56
2023/04/22 03:15:34;;;;;;;567.20;231.98;;;;;;;;;;4983431;28;20060;-58
2023/04/22 03:17:59;;;;;;;562.50;235.20;;;;;;;;;;4984747;28;20080;-58
2023/04/22 03:20:24;;;;;;;565.13;238.55;;;;;;;;;;4984027;28;20084;-58
2023/04/22 03:22:50;;;;;;;536.03;221.53;;;;;;;;;;4985733;28;20400;-56
2023/04/22 03:25:15;;;;;;;582.77;222.13;;;;;;;;;;4984078;28;20360;-56
2023/04/22 03:27:40;;;;;;;526.97;219.82;;;;;;;;;;4982877;28;21129;-56
2023/04/22 03:30:06;;;;;;;531.88;211.80;;;;;;;;;;4985053;28;20037;-58
2023/04/22 03:32:32;;;;;;;554.00;217.73;;;;;;;;;;4983015;28;20020;-56
2023/04/22 03:34:57;;;;;;;530.92;216.07;;;;;;;;;;4984449;28;20048;-57
2023/04/22 03:37:22;;;;;;;533.63;217.82;;;;;;;;;;4984748;28;20056;-57
2023/04/22 03:39:47;;;;;;;543.27;219.13;;;;;;;;;;4984136;28;20038;-57
2023/04/22 03:42:13;;;;;;;541.00;218.03;;;;;;;;;;4985092;28;20715;-57
2023/04/22 03:44:38;;;;;;;536.22;221.93;;;;;;;;;;4982603;28;20278;-58
2023/04/22 03:47:03;;;;;;;528.35;217.57;;;;;;;;;;4985582;28;20026;-60
2023/04/22 03:49:29;;;;;;;532.17;214.75;;;;;;;;;;4985570;28;20040;-60
2023/04/22 03:51:54;;;;;;;555.67;221.85;;;;;;;;;;4983577;28;20038;-59
2023/04/22 03:54:19;;;;;;;511.48;208.48;;;;;;;;;;4985006;28;20056;-57
2023/04/22 03:56:45;;;;;;;505.17;212.18;;;;;;;;;;4984711;28;20563;-59
2023/04/22 03:59:10;;;;;;;573.92;216.75;;;;;;;;;;4984483;28;20965;-59
2023/04/22 04:01:35;;;;;;;515.30;221.40;;;;;;;;;;4983141;28;20041;-59
2023/04/22 04:04:01;;;;;;;535.80;218.80;;;;;;;;;;4983092;28;20264;-59
2023/04/22 04:06:26;;;;;;;559.78;226.18;;;;;;;;;;4983185;28;20128;-57
2023/04/22 04:08:52;;;;;;;526.60;226.00;;;;;;;;;;4983546;28;20026;-55
2023/04/22 04:11:17;;;;;;;549.03;219.32;;;;;;;;;;4983912;28;20050;-57
2023/04/22 04:13:42;;;;;;;564.17;231.40;;;;;;;;;;4985224;28;20126;-60
2023/04/22 04:16:08;;;;;;;540.33;234.27;;;;;;;;;;4984038;28;20400;-59
2023/04/22 04:18:34;;;;;;;585.45;239.73;;;;;;;;;;4983941;28;20253;-58
2023/04/22 04:20:59;;;;;;;536.50;232.07;;;;;;;;;;4984245;28;20070;-56
2023/04/22 04:23:25;;;;;;;561.88;243.48;;;;;;;;;;4984351;28;20353;-58
2023/04/22 04:25:51;;;;;;;552.03;242.05;;;;;;;;;;4982734;28;20397;-56
2023/04/22 04:28:16;;;;;;;559.05;243.90;;;;;;;;;;4983451;28;20151;-60
2023/04/22 04:30:41;;;;;;;563.00;242.43;;;;;;;;;;4984616;28;20061;-56
2023/04/22 04:33:07;;;;;;;574.67;246.95;;;;;;;;;;4985554;28;20096;-58
2023/04/22 04:35:33;;;;;;;580.33;250.70;;;;;;;;;;4983319;28;20037;-56
2023/04/22 04:37:59;;;;;;;583.88;250.90;;;;;;;;;;4984376;28;20407;-56
2023/04/22 04:40:24;;;;;;;590.10;255.38;;;;;;;;;;4984034;28;20094;-56
2023/04/22 04:42:51;;;;;;;551.60;247.73;;;;;;;;;;4985077;28;20026;-58
2023/04/22 04:45:18;;;;;;;575.55;250.93;;;;;;;;;;4984267;28;20033;-56
2023/04/22 04:47:43;;;;;;;551.10;235.02;;;;;;;;;;4984192;28;20037;-59
2023/04/22 04:50:09;;;;;;;594.17;235.90;;;;;;;;;;4982341;28;20018;-58
2023/04/22 04:52:34;;;;;;;556.20;236.43;;;;;;;;;;4981206;28;20038;-59
2023/04/22 04:54:59;;;;;;;548.10;231.47;;;;;;;;;;4984601;28;20633;-57
2023/04/22 04:57:24;;;;;;;582.30;243.52;;;;;;;;;;4981670;28;20258;-58
2023/04/22 04:59:50;;;;;;;590.00;255.03;;;;;;;;;;4981608;28;20452;-57
2023/04/22 05:02:15;;;;;;;615.90;251.10;;;;;;;;;;4983883;28;20779;-58
2023/04/22 05:04:40;;;;;;;580.03;250.03;;;;;;;;;;4982510;28;20061;-57
2023/04/22 05:07:05;;;;;;;592.33;246.57;;;;;;;;;;4982588;28;20347;-57
2023/04/22 05:09:35;;;;;;;631.25;273.45;;;;;;;;;;4983468;28;20257;-59
2023/04/22 05:12:01;;;;;;;629.30;262.33;;;;;;;;;;4983473;28;20038;-57
2023/04/22 05:14:26;;;;;;;625.47;249.95;;;;;;;;;;4980994;28;20519;-57
2023/04/22 05:16:51;;;;;;;662.47;254.07;;;;;;;;;;4981703;28;20029;-58
2023/04/22 05:19:17;;;;;;;608.85;248.15;;;;;;;;;;4984174;28;20292;-58
2023/04/22 05:21:42;;;;;;;625.15;247.73;;;;;;;;;;4982678;28;20211;-61
2023/04/22 05:24:07;;;;;;;612.63;224.23;;;;;;;;;;4981907;28;20018;-57
2023/04/22 05:26:32;;;;;;;604.17;241.55;;;;;;;;;;4983067;28;20485;-59
2023/04/22 05:28:58;;;;;;;647.67;249.07;;;;;;;;;;4983398;28;20137;-59
2023/04/22 05:31:23;;;;;;;612.90;231.02;;;;;;;;;;4983170;28;20901;-60
2023/04/22 05:33:48;;;;;;;740.75;245.18;;;;;;;;;;4983311;28;20632;-58
2023/04/22 05:36:14;;;;;;;683.87;253.40;;;;;;;;;;4982351;28;20038;-59
2023/04/22 05:38:39;;;;;;;668.22;262.02;;;;;;;;;;4984771;28;20280;-59
2023/04/22 05:41:04;;;;;;;645.10;265.02;;;;;;;;;;4982662;28;20042;-58
2023/04/22 05:43:30;;;;;;;712.72;276.15;;;;;;;;;;4982914;28;20018;-58
2023/04/22 05:45:55;;;;;;;670.75;265.25;;;;;;;;;;4982230;28;20136;-58
2023/04/22 05:48:20;;;;;;;673.80;230.57;;;;;;;;;;4983324;28;20041;-58
2023/04/22 05:50:45;;;;;;;726.95;247.73;;;;;;;;;;4982421;28;20487;-58
2023/04/22 05:53:11;;;;;;;681.33;238.23;;;;;;;;;;4967944;28;20034;-58
2023/04/22 05:55:36;;;;;;;703.23;243.30;;;;;;;;;;4983066;28;20528;-61
2023/04/22 05:58:01;;;;;;;679.13;231.45;;;;;;;;;;4986792;28;20242;-58
2023/04/22 06:00:26;;;;;;;714.20;238.30;;;;;;;;;;4985364;28;20030;-62
2023/04/22 06:02:52;;;;;;;711.87;242.47;;;;;;;;;;4986874;28;20578;-60
2023/04/22 06:05:17;;;;;;;714.40;237.70;;;;;;;;;;4986797;28;20803;-61
2023/04/22 06:07:42;;;;;;;682.23;234.97;;;;;;;;;;4986402;28;20318;-59
2023/04/22 06:10:08;;;;;;;705.63;231.60;;;;;;;;;;4986200;28;20321;-59
2023/04/22 06:12:33;;;;;;;665.88;215.70;;;;;;;;;;4985300;28;20026;-58
2023/04/22 06:14:58;;;;;;;691.20;218.10;;;;;;;;;;4986675;28;20399;-56
2023/04/22 06:17:23;;;;;;;676.77;221.10;;;;;;;;;;4985860;28;20448;-56
2023/04/22 06:19:49;;;;;;;673.07;216.47;;;;;;;;;;4972981;28;20496;-58
2023/04/22 06:22:14;;;;;;;772.10;236.07;;;;;;;;;;4982631;28;20713;-56
2023/04/22 06:24:39;;;;;;;704.00;230.37;;;;;;;;;;4985648;28;20061;-57
2023/04/22 06:27:05;;;;;;;682.00;225.57;;;;;;;;;;4984171;28;20448;-59
2023/04/22 06:29:30;;;;;;;703.33;243.97;;;;;;;;;;4985795;28;20010;-58
2023/04/22 06:31:55;;;;;;;714.05;233.68;;;;;;;;;;4987532;28;20066;-57
2023/04/22 06:34:21;;;;;;;705.83;231.07;;;;;;;;;;4985895;28;20030;-56
2023/04/22 06:36:46;;;;;;;681.17;223.82;;;;;;;;;;4985228;28;20305;-58
2023/04/22 06:39:11;;;;;;;666.93;214.13;;;;;;;;;;4988195;28;20029;-59
2023/04/22 06:41:37;;;;;;;669.77;215.00;;;;;;;;;;4984119;28;20892;-56
2023/04/22 06:44:02;;;;;;;679.50;219.80;;;;;;;;;;4985002;28;20730;-60
2023/04/22 06:46:27;;;;;;;671.55;220.77;;;;;;;;;;4984012;28;20309;-58
2023/04/22 06:48:52;;;;;;;722.63;228.23;;;;;;;;;;4986462;28;20026;-57
2023/04/22 06:51:18;;;;;;;681.87;220.83;;;;;;;;;;4985964;28;20049;-60
2023/04/22 06:53:43;;;;;;;839.20;243.00;;;;;;;;;;4983841;28;20105;-61
2023/04/22 06:56:08;;;;;;;709.00;232.90;;;;;;;;;;4971367;28;20070;-58
2023/04/22 06:58:33;;;;;;;715.23;232.03;;;;;;;;;;4984108;28;20491;-59
2023/04/22 07:00:58;;;;;;;715.30;220.53;;;;;;;;;;4985201;28;20527;-58
2023/04/22 07:03:24;;;;;;;683.80;215.47;;;;;;;;;;4978013;28;20037;-60
2023/04/22 07:05:49;;;;;;;645.10;213.67;;;;;;;;;;4985758;28;20281;-57
2023/04/22 07:08:15;;;;;;;698.97;229.30;;;;;;;;;;4985512;28;20408;-59
2023/04/22 07:10:40;;;;;;;613.83;205.75;;;;;;;;;;4987187;28;20668;-57
2023/04/22 07:13:05;;;;;;;650.88;226.70;;;;;;;;;;4987587;28;20056;-60
2023/04/22 07:15:30;;;;;;;662.25;225.23;;;;;;;;;;4986484;28;20044;-57
2023/04/22 07:17:56;;;;;;;623.60;210.47;;;;;;;;;;4987120;28;20416;-59
2023/04/22 07:20:21;;;;;;;717.47;235.38;;;;;;;;;;4985356;28;20117;-61
2023/04/22 07:22:46;;;;;;;652.63;225.30;;;;;;;;;;4987193;28;20069;-60
2023/04/22 07:25:12;;;;;;;704.60;245.27;;;;;;;;;;4986534;28;20036;-60
2023/04/22 07:27:37;;;;;;;692.10;234.47;;;;;;;;;;4987197;28;20288;-58
2023/04/22 07:30:03;;;;;;;664.42;225.00;;;;;;;;;;4989341;28;20260;-59
2023/04/22 07:32:28;;;;;;;734.97;238.57;;;;;;;;;;4985690;28;20110;-61
2023/04/22 07:34:53;;;;;;;699.55;233.25;;;;;;;;;;4986890;28;20767;-58
2023/04/22 07:37:20;;;;;;;689.97;230.00;;;;;;;;;;4986614;28;20134;-58
2023/04/22 07:39:45;;;;;;;687.83;230.02;;;;;;;;;;4989303;28;20049;-59
2023/04/22 07:42:11;;;;;;;666.30;223.37;;;;;;;;;;4987637;28;20023;-60
2023/04/22 07:44:36;;;;;;;634.80;211.43;;;;;;;;;;4987586;28;20037;-61
2023/04/22 07:47:02;;;;;;;671.97;217.70;;;;;;;;;;4986663;28;20038;-60
2023/04/22 07:49:27;;;;;;;646.80;219.67;;;;;;;;;;4986948;28;20253;-57
2023/04/22 07:51:52;;;;;;;669.80;227.13;;;;;;;;;;4986450;28;20307;-57
2023/04/22 07:54:17;;;;;;;685.40;219.33;;;;;;;;;;4984803;28;20053;-61
2023/04/22 07:56:43;;;;;;;644.83;219.98;;;;;;;;;;4986306;28;20153;-60
2023/04/22 07:59:08;;;;;;;660.47;218.50;;;;;;;;;;4987482;28;20037;-60
2023/04/22 08:01:33;;;;;;;626.03;210.87;;;;;;;;;;4985691;28;20037;-58
2023/04/22 08:03:58;;;;;;;690.87;230.30;;;;;;;;;;4986592;28;21042;-61
2023/04/22 08:06:24;;;;;;;697.37;228.23;;;;;;;;;;4984385;28;20073;-60
2023/04/22 08:08:49;;;;;;;692.83;231.13;;;;;;;;;;4986869;28;20073;-61
2023/04/22 08:11:14;;;;;;;639.63;212.75;;;;;;;;;;4986421;28;20392;-58
2023/04/22 08:13:40;;;;;;;800.33;226.07;;;;;;;;;;4985910;28;20282;-59
2023/04/22 08:16:06;;;;;;;723.92;228.65;;;;;;;;;;5017090;28;20062;-59
2023/04/22 08:18:31;;;;;;;689.90;228.07;;;;;;;;;;4985160;28;20021;-59
2023/04/22 08:20:56;;;;;;;679.08;232.88;;;;;;;;;;4985719;28;20115;-59
2023/04/22 08:23:22;;;;;;;707.97;238.53;;;;;;;;;;4985777;28;20030;-60
2023/04/22 08:25:47;;;;;;;678.30;222.30;;;;;;;;;;4985287;28;20509;-60
2023/04/22 08:28:13;;;;;;;648.22;214.73;;;;;;;;;;4985511;28;20034;-58
2023/04/22 08:30:38;;;;;;;644.03;219.15;;;;;;;;;;4986592;28;20481;-60
2023/04/22 08:33:03;;;;;;;673.80;217.20;;;;;;;;;;4984301;28;20069;-59
2023/04/22 08:35:28;;;;;;;694.20;227.07;;;;;;;;;;4987324;28;20084;-63
2023/04/22 08:37:54;;;;;;;687.53;228.93;;;;;;;;;;4986623;28;20416;-62
2023/04/22 08:40:19;;;;;;;684.17;224.07;;;;;;;;;;4985321;28;20562;-60
2023/04/22 08:42:45;;;;;;;636.67;218.17;;;;;;;;;;4983781;28;20269;-60
2023/04/22 08:45:12;;;;;;;706.00;229.20;;;;;;;;;;4984403;28;20039;-58
2023/04/22 08:47:38;;;;;;;614.40;205.10;;;;;;;;;;4985257;28;20022;-58
2023/04/22 08:50:05;;;;;;;664.67;222.90;;;;;;;;;;4985514;28;20596;-59
2023/04/22 08:52:30;;;;;;;694.85;225.25;;;;;;;;;;4985198;28;20054;-58
2023/04/22 08:54:55;;;;;;;709.30;213.25;;;;;;;;;;4981561;28;20037;-59
2023/04/22 08:57:22;;;;;;;676.92;213.77;;;;;;;;;;4980691;28;20046;-59
2023/04/22 08:59:48;;;;;;;736.97;224.77;;;;;;;;;;4984378;28;20044;-57
2023/04/22 09:02:18;;;;;;;708.15;223.93;;;;;;;;;;4980491;28;20906;-58
2023/04/22 09:04:45;;;;;;;678.83;221.55;;;;;;;;;;4985843;28;20868;-59
2023/04/22 09:07:12;;;;;;;675.08;221.63;;;;;;;;;;4986858;28;20120;-57
2023/04/22 09:09:37;;;;;;;723.42;224.48;;;;;;;;;;4984902;28;20106;-61
2023/04/22 09:12:04;;;;;;;760.55;234.27;;;;;;;;;;4983565;28;20450;-60
2023/04/22 09:14:29;;;;;;;791.83;243.43;;;;;;;;;;4975229;28;20060;-61
2023/04/22 09:16:56;;;;;;;901.28;249.13;;;;;;;;;;4978874;28;20690;-61
2023/04/22 09:19:22;;;;;;;779.88;240.25;;;;;;;;;;4982096;28;20022;-60
2023/04/22 09:21:48;;;;;;;804.03;244.77;;;;;;;;;;4981245;28;20045;-60
2023/04/22 09:24:13;;;;;;;668.58;201.70;;;;;;;;;;4980989;28;20037;-58
2023/04/22 09:26:40;;;;;;;663.67;210.13;;;;;;;;;;4980893;28;20041;-61
2023/04/22 09:29:08;;;;;;;874.28;218.48;;;;;;;;;;4978724;28;20030;-61
2023/04/22 09:31:33;;;;;;;704.38;219.30;;;;;;;;;;4978404;28;20026;-60
2023/04/22 09:33:59;;;;;;;712.45;209.48;;;;;;;;;;4981365;28;20237;-62
2023/04/22 09:36:26;;;;;;;741.40;220.85;;;;;;;;;;4979924;28;20317;-58
2023/04/22 09:38:56;;;;;;;719.65;219.05;;;;;;;;;;4980423;28;20026;-61
2023/04/22 09:41:28;;;;;;;741.38;217.95;;;;;;;;;;4980560;28;20123;-59
2023/04/22 09:43:53;;;;;;;848.10;231.77;;;;;;;;;;4978615;28;20130;-58
2023/04/22 09:46:20;;;;;;;750.60;232.65;;;;;;;;;;4978726;28;20133;-62
2023/04/22 09:48:46;;;;;;;795.92;224.95;;;;;;;;;;4980247;28;20030;-59
2023/04/22 09:51:17;;;;;;;777.35;240.38;;;;;;;;;;4981362;28;20038;-63
2023/04/22 09:53:43;;;;;;;;;;;;;;;;;;4980667;28;20101;-62
2023/04/22 09:56:08;;;;;;;779.28;239.93;;;;;;;;;;4981794;28;19913;-59
2023/04/22 09:58:37;;;;;;;703.63;224.33;;;;;;;;;;4982477;28;20391;-60
2023/04/22 10:01:03;;;;;;;761.03;219.02;;;;;;;;;;4978423;28;20062;-57
2023/04/22 10:03:28;;;;;;;671.28;211.70;;;;;;;;;;4981693;28;20129;-59
2023/04/22 10:05:53;;;;;;;741.27;213.63;;;;;;;;;;4980881;28;20410;-57
2023/04/22 10:08:18;;;;;;;806.17;249.60;;;;;;;;;;4982538;28;20261;-60
2023/04/22 10:10:44;;;;;;;661.75;198.90;;;;;;;;;;4982830;28;20280;-59
2023/04/22 10:13:09;;;;;;;784.40;213.82;;;;;;;;;;4980988;28;20660;-60
2023/04/22 10:15:35;;;;;;;619.22;170.73;;;;;;;;;;4978622;28;20117;-58
2023/04/22 10:18:01;;;;;;;673.53;194.27;;;;;;;;;;4980520;28;20041;-60
2023/04/22 10:20:27;;;;;;;656.90;181.32;;;;;;;;;;4978803;28;20514;-60
2023/04/22 10:22:54;;;;;;;667.40;193.45;;;;;;;;;;4978639;28;20157;-60
2023/04/22 10:25:24;;;;;;;742.08;200.57;;;;;;;;;;4979961;28;20058;-60
2023/04/22 10:28:08;;;;;;;709.67;201.15;;;;;;;;;;4982410;28;20050;-63
2023/04/22 10:30:37;;;;;;;601.40;190.48;;;;;;;;;;4979573;28;20027;-59
2023/04/22 10:33:21;;;;;;;587.75;186.88;;;;;;;;;;4979427;28;20181;-63
2023/04/22 10:36:06;;;;;;;93.85;6.90;;;;;;;;;;4979920;28;20034;-62
2023/04/22 10:38:35;;;;;;;104.30;7.00;;;;;;;;;;4978758;28;20789;-62
2023/04/22 10:41:02;;;;;;;108.55;7.32;;;;;;;;;;4982817;28;20038;-60
2023/04/22 10:43:44;;;;;;;99.53;6.75;;;;;;;;;;4986222;28;20840;-63
2023/04/22 10:46:28;;;;;;;61.50;5.35;;;;;;;;;;4982238;28;20088;-61
2023/04/22 10:48:55;;;;;;;130.95;8.18;;;;;;;;;;4986278;28;20036;-60
2023/04/22 10:51:43;;;;;;;116.40;7.55;;;;;;;;;;4984935;28;20715;-61
2023/04/22 10:54:24;;;;;;;83.43;5.90;;;;;;;;;;4976378;28;20072;-62
2023/04/22 10:57:21;;;;;;;108.50;7.28;;;;;;;;;;4985737;28;20045;-61
2023/04/22 10:59:46;;;;;;;92.85;6.43;;;;;;;;;;4986192;28;20029;-62
2023/04/22 11:02:12;;;;;;;117.37;7.53;;;;;;;;;;4982062;28;20030;-63
2023/04/22 11:04:38;;;;;;;113.22;7.22;;;;;;;;;;4985847;28;20049;-59
2023/04/22 11:07:25;;;;;;;158.68;8.93;;;;;;;;;;4984122;28;20031;-59
2023/04/22 11:10:03;;;;;;;66.78;5.15;;;;;;;;;;4983892;28;20030;-63
2023/04/22 11:12:37;;;;;;;148.70;8.55;;;;;;;;;;4983580;28;20038;-60
2023/04/22 11:15:10;;;;;;;109.15;7.07;;;;;;;;;;4981700;28;20042;-61
2023/04/22 11:17:36;;;;;;;89.30;5.80;;;;;;;;;;4984337;28;20051;-59
2023/04/22 11:20:03;;;;;;;76.18;5.32;;;;;;;;;;4983225;28;20046;-59
2023/04/22 11:22:33;;;;;;;109.28;6.88;;;;;;;;;;4983874;28;20605;-60
2023/04/22 11:24:59;;;;;;;87.32;5.78;;;;;;;;;;4984623;28;20028;-57
2023/04/22 11:27:25;;;;;;;101.13;6.70;;;;;;;;;;4984636;28;20029;-60
2023/04/22 11:30:03;;;;;;;87.43;6.03;;;;;;;;;;4981922;28;20060;-58
2023/04/22 11:32:28;;;;;;;161.88;9.13;;;;;;;;;;4983600;28;20108;-56
2023/04/22 11:34:54;;;;;;;148.75;8.52;;;;;;;;;;4985698;28;20022;-57
2023/04/22 11:37:19;;;;;;;134.45;7.82;;;;;;;;;;4986754;28;20396;-60
2023/04/22 11:39:44;;;;;;;126.80;7.60;;;;;;;;;;4988816;28;20042;-60
2023/04/22 11:42:11;;;;;;;118.40;7.30;;;;;;;;;;4986482;28;20461;-54
2023/04/22 11:44:37;;;;;;;111.50;7.03;;;;;;;;;;4985415;28;20022;-59
2023/04/22 11:47:02;;;;;;;138.07;7.93;;;;;;;;;;4983264;28;20042;-59
2023/04/22 11:49:31;;;;;;;91.87;5.97;;;;;;;;;;4986089;28;20055;-58
2023/04/22 11:51:56;;;;;;;120.82;7.25;;;;;;;;;;4984537;28;20277;-61
2023/04/22 11:54:35;;;;;;;108.30;6.57;;;;;;;;;;4982037;28;20026;-60
2023/04/22 11:57:14;;;;;;;138.05;7.80;;;;;;;;;;4982273;28;20062;-60
2023/04/22 11:59:39;;;;;;;69.13;5.13;;;;;;;;;;4983923;28;20198;-60
2023/04/22 12:02:05;;;;;;;88.47;6.18;;;;;;;;;;4980946;28;20042;-60
2023/04/22 12:04:34;;;;;;;89.50;6.28;;;;;;;;;;4982506;28;20151;-58
2023/04/22 12:07:00;;;;;;;91.20;6.28;;;;;;;;;;4984827;28;20046;-60
2023/04/22 12:09:26;;;;;;;94.63;6.23;;;;;;;;;;4984622;28;20026;-59
2023/04/22 12:11:51;;;;;;;79.63;5.72;;;;;;;;;;4981478;28;20278;-58
2023/04/22 12:14:16;;;;;;;72.00;5.28;;;;;;;;;;4981303;28;20397;-58
2023/04/22 12:16:42;;;;;;;95.83;6.40;;;;;;;;;;4980705;28;20042;-56
2023/04/22 12:19:07;;;;;;;99.13;6.30;;;;;;;;;;4982387;28;20038;-59
2023/04/22 12:21:33;;;;;;;106.32;6.65;;;;;;;;;;4983632;28;20030;-61
2023/04/22 12:23:59;;;;;;;143.57;8.38;;;;;;;;;;4981598;28;20033;-61
2023/04/22 12:26:28;;;;;;;123.97;7.40;;;;;;;;;;4984612;28;20038;-61
2023/04/22 12:28:54;;;;;;;137.40;8.05;;;;;;;;;;4984838;28;20109;-64
2023/04/22 12:31:20;;;;;;;103.78;6.50;;;;;;;;;;4986407;28;20038;-59
2023/04/22 12:33:45;;;;;;;162.32;8.98;;;;;;;;;;4985498;28;20041;-60
2023/04/22 12:36:11;;;;;;;126.53;7.55;;;;;;;;;;4985129;28;20070;-60
2023/04/22 12:38:36;;;;;;;114.13;7.18;;;;;;;;;;4986918;28;20057;-61
2023/04/22 12:41:03;;;;;;;142.55;8.40;;;;;;;;;;4985961;28;20034;-58
2023/04/22 12:43:28;;;;;;;124.70;7.35;;;;;;;;;;4984043;28;20018;-61
2023/04/22 12:45:53;;;;;;;128.05;7.47;;;;;;;;;;4979591;28;20063;-60
2023/04/22 12:48:19;;;;;;;155.98;8.05;;;;;;;;;;4985842;28;20487;-62
2023/04/22 12:50:44;;;;;;;135.90;7.63;;;;;;;;;;4984956;28;20058;-62
2023/04/22 12:53:09;;;;;;;107.43;6.47;;;;;;;;;;4983169;28;20030;-61
2023/04/22 12:55:35;;;;;;;111.60;6.40;;;;;;;;;;4982472;28;20055;-63
2023/04/22 12:58:00;;;;;;;113.38;6.60;;;;;;;;;;4982923;28;20645;-61
2023/04/22 13:00:25;;;;;;;102.20;6.38;;;;;;;;;;4981421;28;20411;-59
2023/04/22 13:02:51;;;;;;;86.38;5.45;;;;;;;;;;4983127;28;20030;-57
2023/04/22 13:05:17;;;;;;;84.30;5.70;;;;;;;;;;4981337;28;20098;-55
2023/04/22 13:07:42;;;;;;;120.47;6.80;;;;;;;;;;4983761;28;20138;-56
2023/04/22 13:10:11;;;;;;;72.13;5.13;;;;;;;;;;4986420;28;20620;-57
2023/04/22 13:12:36;;;;;;;70.35;4.85;;;;;;;;;;4984010;28;20436;-57
2023/04/22 13:15:02;;;;;;;120.80;7.55;;;;;;;;;;4978800;28;20815;-57
2023/04/22 13:17:27;;;;;;;85.72;5.55;;;;;;;;;;4980637;28;20485;-60
2023/04/22 13:19:53;;;;;;;77.80;5.20;;;;;;;;;;4983718;28;20491;-59
2023/04/22 13:22:18;;;;;;;111.00;6.57;;;;;;;;;;4983309;28;20499;-58
2023/04/22 13:24:43;;;;;;;70.70;4.97;;;;;;;;;;4982027;28;20018;-58
2023/04/22 13:27:09;;;;;;;112.38;6.57;;;;;;;;;;4982965;28;20676;-56
2023/04/22 13:29:35;;;;;;;94.10;5.93;;;;;;;;;;4982652;28;20079;-60
2023/04/22 13:32:01;;;;;;;106.68;6.30;;;;;;;;;;4981333;28;20042;-60
2023/04/22 13:34:26;;;;;;;147.57;7.68;;;;;;;;;;4982342;28;20030;-60
2023/04/22 13:36:51;;;;;;;128.60;7.47;;;;;;;;;;4984774;28;20567;-57
2023/04/22 13:39:17;;;;;;;130.70;7.27;;;;;;;;;;4982640;28;20033;-58
2023/04/22 13:41:42;;;;;;;127.80;7.10;;;;;;;;;;4982397;28;20035;-56
2023/04/22 13:44:09;;;;;;;149.38;8.05;;;;;;;;;;4979553;28;20315;-62
2023/04/22 13:46:35;;;;;;;129.40;7.43;;;;;;;;;;4965997;28;20513;-60
2023/04/22 13:49:00;;;;;;;115.10;7.03;;;;;;;;;;4983201;28;20521;-63
2023/04/22 13:51:25;;;;;;;115.32;6.95;;;;;;;;;;4983530;28;20576;-62
2023/04/22 13:53:50;;;;;;;210.13;10.70;;;;;;;;;;4982488;28;20046;-61